sensor_id;sensor_type;location;lat;lon;timestamp;temperature;humidity
29939;DHT22;16799;50.844;5.304;2023-08-24T00:01:32;20.90;99.90
29939;DHT22;16799;50.844;5.304;2023-08-24T00:03:58;20.90;99.90
29939;DHT22;16799;50.844;5.304;2023-08-24T00:06:24;20.80;99.90
29939;DHT22;16799;50.844;5.304;2023-08-24T00:08:50;20.70;99.90
29939;DHT22;16799;50.844;5.304;2023-08-24T00:11:15;20.70;99.90
29939;DHT22;16799;50.844;5.304;2023-08-24T00:13:44;20.80;99.90
29939;DHT22;16799;50.844;5.304;2023-08-24T00:16:19;20.90;99.90
29939;DHT22;16799;50.844;5.304;2023-08-24T00:18:46;20.90;99.90
29939;DHT22;16799;50.844;5.304;2023-08-24T00:21:15;20.70;99.90
29939;DHT22;16799;50.844;5.304;2023-08-24T00:23:48;20.70;99.90
29939;DHT22;16799;50.844;5.304;2023-08-24T00:26:14;20.80;99.90
29939;DHT22;16799;50.844;5.304;2023-08-24T00:28:42;20.90;99.90
29939;DHT22;16799;50.844;5.304;2023-08-24T00:31:08;20.90;99.90
29939;DHT22;16799;50.844;5.304;2023-08-24T00:33:33;20.70;99.90
29939;DHT22;16799;50.844;5.304;2023-08-24T00:36:00;20.60;99.90
29939;DHT22;16799;50.844;5.304;2023-08-24T00:38:26;20.60;99.90
29939;DHT22;16799;50.844;5.304;2023-08-24T00:40:52;20.60;99.90
29939;DHT22;16799;50.844;5.304;2023-08-24T00:43:19;20.50;99.90
29939;DHT22;16799;50.844;5.304;2023-08-24T00:45:51;20.60;99.90
29939;DHT22;16799;50.844;5.304;2023-08-24T00:48:18;20.80;99.90
29939;DHT22;16799;50.844;5.304;2023-08-24T00:50:44;20.60;99.90
29939;DHT22;16799;50.844;5.304;2023-08-24T00:53:09;20.50;99.90
29939;DHT22;16799;50.844;5.304;2023-08-24T00:55:35;20.30;99.90
29939;DHT22;16799;50.844;5.304;2023-08-24T00:58:02;20.30;99.90
29939;DHT22;16799;50.844;5.304;2023-08-24T01:00:28;20.40;99.90
29939;DHT22;16799;50.844;5.304;2023-08-24T01:02:54;20.30;99.90
29939;DHT22;16799;50.844;5.304;2023-08-24T01:05:20;20.30;99.90
29939;DHT22;16799;50.844;5.304;2023-08-24T01:07:46;20.30;99.90
29939;DHT22;16799;50.844;5.304;2023-08-24T01:10:12;20.30;99.90
29939;DHT22;16799;50.844;5.304;2023-08-24T01:18:01;20.00;99.90
29939;DHT22;16799;50.844;5.304;2023-08-24T01:20:30;20.00;99.90
29939;DHT22;16799;50.844;5.304;2023-08-24T01:23:03;20.10;99.90
29939;DHT22;16799;50.844;5.304;2023-08-24T01:26:04;20.10;99.90
29939;DHT22;16799;50.844;5.304;2023-08-24T01:28:30;20.20;99.90
29939;DHT22;16799;50.844;5.304;2023-08-24T01:30:56;20.10;99.90
29939;DHT22;16799;50.844;5.304;2023-08-24T01:33:22;20.30;99.90
29939;DHT22;16799;50.844;5.304;2023-08-24T01:35:48;20.30;99.90
29939;DHT22;16799;50.844;5.304;2023-08-24T01:38:14;20.30;99.90
29939;DHT22;16799;50.844;5.304;2023-08-24T01:43:31;20.50;99.90
29939;DHT22;16799;50.844;5.304;2023-08-24T01:46:00;20.40;99.90
29939;DHT22;16799;50.844;5.304;2023-08-24T01:48:29;20.50;99.90
29939;DHT22;16799;50.844;5.304;2023-08-24T01:50:55;20.40;99.90
29939;DHT22;16799;50.844;5.304;2023-08-24T01:53:22;20.50;99.90
29939;DHT22;16799;50.844;5.304;2023-08-24T01:55:48;20.60;99.90
29939;DHT22;16799;50.844;5.304;2023-08-24T01:58:14;20.70;99.90
29939;DHT22;16799;50.844;5.304;2023-08-24T02:00:40;20.70;99.90
29939;DHT22;16799;50.844;5.304;2023-08-24T02:03:06;20.70;99.90
29939;DHT22;16799;50.844;5.304;2023-08-24T02:05:31;20.80;99.90
29939;DHT22;16799;50.844;5.304;2023-08-24T02:07:57;20.80;99.90
29939;DHT22;16799;50.844;5.304;2023-08-24T02:10:23;20.70;99.90
29939;DHT22;16799;50.844;5.304;2023-08-24T02:12:49;20.60;99.90
29939;DHT22;16799;50.844;5.304;2023-08-24T02:15:14;20.60;99.90
29939;DHT22;16799;50.844;5.304;2023-08-24T02:17:40;20.70;99.90
29939;DHT22;16799;50.844;5.304;2023-08-24T02:20:06;20.50;99.90
29939;DHT22;16799;50.844;5.304;2023-08-24T02:22:34;20.10;99.90
29939;DHT22;16799;50.844;5.304;2023-08-24T02:25:00;20.20;99.90
29939;DHT22;16799;50.844;5.304;2023-08-24T02:27:26;20.30;99.90
29939;DHT22;16799;50.844;5.304;2023-08-24T02:29:52;20.40;99.90
29939;DHT22;16799;50.844;5.304;2023-08-24T02:32:18;20.50;99.90
29939;DHT22;16799;50.844;5.304;2023-08-24T02:34:43;20.60;99.90
29939;DHT22;16799;50.844;5.304;2023-08-24T02:37:09;20.20;99.90
29939;DHT22;16799;50.844;5.304;2023-08-24T02:39:35;20.00;99.90
29939;DHT22;16799;50.844;5.304;2023-08-24T02:42:01;20.10;99.90
29939;DHT22;16799;50.844;5.304;2023-08-24T02:44:26;20.20;99.90
29939;DHT22;16799;50.844;5.304;2023-08-24T02:46:54;20.30;99.90
29939;DHT22;16799;50.844;5.304;2023-08-24T02:49:19;20.40;99.90
29939;DHT22;16799;50.844;5.304;2023-08-24T02:51:46;20.70;99.90
29939;DHT22;16799;50.844;5.304;2023-08-24T02:54:11;20.70;99.90
29939;DHT22;16799;50.844;5.304;2023-08-24T02:56:37;20.60;99.90
29939;DHT22;16799;50.844;5.304;2023-08-24T02:59:03;19.80;99.90
29939;DHT22;16799;50.844;5.304;2023-08-24T03:01:28;19.60;99.90
29939;DHT22;16799;50.844;5.304;2023-08-24T03:03:55;19.70;99.90
29939;DHT22;16799;50.844;5.304;2023-08-24T03:06:20;19.80;99.90
29939;DHT22;16799;50.844;5.304;2023-08-24T03:08:46;19.90;99.90
29939;DHT22;16799;50.844;5.304;2023-08-24T03:11:12;19.80;99.90
29939;DHT22;16799;50.844;5.304;2023-08-24T03:13:38;19.70;99.90
29939;DHT22;16799;50.844;5.304;2023-08-24T03:16:05;19.30;99.90
29939;DHT22;16799;50.844;5.304;2023-08-24T03:18:30;19.40;99.90
29939;DHT22;16799;50.844;5.304;2023-08-24T03:20:56;19.30;99.90
29939;DHT22;16799;50.844;5.304;2023-08-24T03:23:22;19.30;99.90
29939;DHT22;16799;50.844;5.304;2023-08-24T03:25:48;19.30;99.90
29939;DHT22;16799;50.844;5.304;2023-08-24T03:28:13;19.10;99.90
29939;DHT22;16799;50.844;5.304;2023-08-24T03:30:46;19.20;99.90
29939;DHT22;16799;50.844;5.304;2023-08-24T03:33:12;19.40;99.90
29939;DHT22;16799;50.844;5.304;2023-08-24T03:35:38;19.20;99.90
29939;DHT22;16799;50.844;5.304;2023-08-24T03:38:03;19.00;99.90
29939;DHT22;16799;50.844;5.304;2023-08-24T03:40:29;18.90;99.90
29939;DHT22;16799;50.844;5.304;2023-08-24T03:42:55;19.10;99.90
29939;DHT22;16799;50.844;5.304;2023-08-24T03:45:22;19.30;99.90
29939;DHT22;16799;50.844;5.304;2023-08-24T03:47:48;19.40;99.90
29939;DHT22;16799;50.844;5.304;2023-08-24T03:50:14;19.60;99.90
29939;DHT22;16799;50.844;5.304;2023-08-24T03:52:39;19.50;99.90
29939;DHT22;16799;50.844;5.304;2023-08-24T03:55:06;19.60;99.90
29939;DHT22;16799;50.844;5.304;2023-08-24T03:57:32;19.60;99.90
29939;DHT22;16799;50.844;5.304;2023-08-24T03:59:58;19.60;99.90
29939;DHT22;16799;50.844;5.304;2023-08-24T04:02:23;19.50;99.90
29939;DHT22;16799;50.844;5.304;2023-08-24T04:04:50;19.50;99.90
29939;DHT22;16799;50.844;5.304;2023-08-24T04:07:16;19.50;99.90
29939;DHT22;16799;50.844;5.304;2023-08-24T04:09:41;19.50;99.90
29939;DHT22;16799;50.844;5.304;2023-08-24T04:12:07;19.50;99.90
29939;DHT22;16799;50.844;5.304;2023-08-24T04:14:33;19.50;99.90
29939;DHT22;16799;50.844;5.304;2023-08-24T04:16:59;19.40;99.90
29939;DHT22;16799;50.844;5.304;2023-08-24T04:19:24;19.40;99.90
29939;DHT22;16799;50.844;5.304;2023-08-24T04:21:50;19.50;99.90
29939;DHT22;16799;50.844;5.304;2023-08-24T04:24:16;19.50;99.90
29939;DHT22;16799;50.844;5.304;2023-08-24T04:26:41;19.40;99.90
29939;DHT22;16799;50.844;5.304;2023-08-24T04:29:07;19.40;99.90
29939;DHT22;16799;50.844;5.304;2023-08-24T04:31:32;19.30;99.90
29939;DHT22;16799;50.844;5.304;2023-08-24T04:33:58;19.20;99.90
29939;DHT22;16799;50.844;5.304;2023-08-24T04:36:24;19.10;99.90
29939;DHT22;16799;50.844;5.304;2023-08-24T04:38:49;19.20;99.90
29939;DHT22;16799;50.844;5.304;2023-08-24T04:41:15;19.00;99.90
29939;DHT22;16799;50.844;5.304;2023-08-24T04:43:41;19.10;99.90
29939;DHT22;16799;50.844;5.304;2023-08-24T04:46:06;19.00;99.90
29939;DHT22;16799;50.844;5.304;2023-08-24T04:48:34;19.00;99.90
29939;DHT22;16799;50.844;5.304;2023-08-24T04:51:01;18.90;99.90
29939;DHT22;16799;50.844;5.304;2023-08-24T04:53:27;18.90;99.90
29939;DHT22;16799;50.844;5.304;2023-08-24T04:55:53;18.80;99.90
29939;DHT22;16799;50.844;5.304;2023-08-24T04:58:20;19.00;99.90
29939;DHT22;16799;50.844;5.304;2023-08-24T05:00:45;19.00;99.90
29939;DHT22;16799;50.844;5.304;2023-08-24T05:03:11;19.00;99.90
29939;DHT22;16799;50.844;5.304;2023-08-24T05:05:37;19.10;99.90
29939;DHT22;16799;50.844;5.304;2023-08-24T05:08:05;19.10;99.90
29939;DHT22;16799;50.844;5.304;2023-08-24T05:10:37;19.10;99.90
29939;DHT22;16799;50.844;5.304;2023-08-24T05:13:03;19.00;99.90
29939;DHT22;16799;50.844;5.304;2023-08-24T05:15:29;19.10;99.90
29939;DHT22;16799;50.844;5.304;2023-08-24T05:17:55;19.10;99.90
29939;DHT22;16799;50.844;5.304;2023-08-24T05:20:28;19.20;99.90
29939;DHT22;16799;50.844;5.304;2023-08-24T05:22:54;19.10;99.90
29939;DHT22;16799;50.844;5.304;2023-08-24T05:25:23;19.20;99.90
29939;DHT22;16799;50.844;5.304;2023-08-24T05:27:49;19.10;99.90
29939;DHT22;16799;50.844;5.304;2023-08-24T05:30:14;19.20;99.90
29939;DHT22;16799;50.844;5.304;2023-08-24T05:32:40;19.20;99.90
29939;DHT22;16799;50.844;5.304;2023-08-24T05:35:06;19.40;99.90
29939;DHT22;16799;50.844;5.304;2023-08-24T05:37:32;19.60;99.90
29939;DHT22;16799;50.844;5.304;2023-08-24T05:40:00;19.80;99.90
29939;DHT22;16799;50.844;5.304;2023-08-24T05:42:25;19.80;99.90
29939;DHT22;16799;50.844;5.304;2023-08-24T05:44:51;19.70;99.90
29939;DHT22;16799;50.844;5.304;2023-08-24T05:47:17;20.00;99.90
29939;DHT22;16799;50.844;5.304;2023-08-24T05:49:42;19.80;99.90
29939;DHT22;16799;50.844;5.304;2023-08-24T05:52:08;19.80;99.90
29939;DHT22;16799;50.844;5.304;2023-08-24T05:54:36;19.90;99.90
29939;DHT22;16799;50.844;5.304;2023-08-24T05:57:02;20.20;99.90
29939;DHT22;16799;50.844;5.304;2023-08-24T05:59:29;20.30;99.90
29939;DHT22;16799;50.844;5.304;2023-08-24T06:01:55;20.60;99.90
29939;DHT22;16799;50.844;5.304;2023-08-24T06:04:21;20.90;99.90
29939;DHT22;16799;50.844;5.304;2023-08-24T06:06:46;20.90;99.90
29939;DHT22;16799;50.844;5.304;2023-08-24T06:09:12;21.00;99.90
29939;DHT22;16799;50.844;5.304;2023-08-24T06:11:38;20.80;99.90
29939;DHT22;16799;50.844;5.304;2023-08-24T06:14:03;21.00;99.90
29939;DHT22;16799;50.844;5.304;2023-08-24T06:16:29;21.10;99.90
29939;DHT22;16799;50.844;5.304;2023-08-24T06:18:55;21.30;99.90
29939;DHT22;16799;50.844;5.304;2023-08-24T06:21:20;21.50;99.90
29939;DHT22;16799;50.844;5.304;2023-08-24T06:23:46;21.50;99.90
29939;DHT22;16799;50.844;5.304;2023-08-24T06:26:13;21.60;99.90
29939;DHT22;16799;50.844;5.304;2023-08-24T06:28:39;21.90;99.90
29939;DHT22;16799;50.844;5.304;2023-08-24T06:31:05;21.90;99.90
29939;DHT22;16799;50.844;5.304;2023-08-24T06:33:33;22.10;99.90
29939;DHT22;16799;50.844;5.304;2023-08-24T06:35:59;22.20;99.90
29939;DHT22;16799;50.844;5.304;2023-08-24T06:38:26;22.20;99.90
29939;DHT22;16799;50.844;5.304;2023-08-24T06:40:52;22.40;99.90
29939;DHT22;16799;50.844;5.304;2023-08-24T06:43:18;22.70;99.90
29939;DHT22;16799;50.844;5.304;2023-08-24T06:45:46;22.90;99.90
29939;DHT22;16799;50.844;5.304;2023-08-24T06:48:12;22.90;99.90
29939;DHT22;16799;50.844;5.304;2023-08-24T06:50:39;23.10;99.90
29939;DHT22;16799;50.844;5.304;2023-08-24T06:53:04;23.30;99.90
29939;DHT22;16799;50.844;5.304;2023-08-24T06:55:30;23.50;99.90
29939;DHT22;16799;50.844;5.304;2023-08-24T06:57:56;23.50;99.90
29939;DHT22;16799;50.844;5.304;2023-08-24T07:00:22;23.80;99.90
29939;DHT22;16799;50.844;5.304;2023-08-24T07:02:49;24.00;99.90
29939;DHT22;16799;50.844;5.304;2023-08-24T07:05:15;24.20;99.90
29939;DHT22;16799;50.844;5.304;2023-08-24T07:07:45;24.40;99.90
29939;DHT22;16799;50.844;5.304;2023-08-24T07:10:11;24.60;99.90
29939;DHT22;16799;50.844;5.304;2023-08-24T07:12:37;24.70;99.90
29939;DHT22;16799;50.844;5.304;2023-08-24T07:15:05;24.70;99.90
29939;DHT22;16799;50.844;5.304;2023-08-24T07:17:31;24.80;99.90
29939;DHT22;16799;50.844;5.304;2023-08-24T07:19:56;24.70;99.90
29939;DHT22;16799;50.844;5.304;2023-08-24T07:22:22;24.80;99.90
29939;DHT22;16799;50.844;5.304;2023-08-24T07:24:48;24.60;99.90
29939;DHT22;16799;50.844;5.304;2023-08-24T07:27:17;24.80;99.90
29939;DHT22;16799;50.844;5.304;2023-08-24T07:29:43;24.70;99.90
29939;DHT22;16799;50.844;5.304;2023-08-24T07:32:09;24.80;99.90
29939;DHT22;16799;50.844;5.304;2023-08-24T07:34:35;25.10;99.90
29939;DHT22;16799;50.844;5.304;2023-08-24T07:37:01;25.50;99.90
29939;DHT22;16799;50.844;5.304;2023-08-24T07:39:27;25.90;99.90
29939;DHT22;16799;50.844;5.304;2023-08-24T07:41:52;26.10;99.90
29939;DHT22;16799;50.844;5.304;2023-08-24T07:44:18;26.00;99.90
29939;DHT22;16799;50.844;5.304;2023-08-24T07:46:44;26.00;99.90
29939;DHT22;16799;50.844;5.304;2023-08-24T07:49:10;25.80;99.90
29939;DHT22;16799;50.844;5.304;2023-08-24T07:51:36;25.90;99.90
29939;DHT22;16799;50.844;5.304;2023-08-24T07:54:02;26.00;99.90
29939;DHT22;16799;50.844;5.304;2023-08-24T07:56:30;25.80;99.90
29939;DHT22;16799;50.844;5.304;2023-08-24T07:58:55;25.80;99.90
29939;DHT22;16799;50.844;5.304;2023-08-24T08:01:21;25.60;99.90
29939;DHT22;16799;50.844;5.304;2023-08-24T08:03:47;26.10;99.90
29939;DHT22;16799;50.844;5.304;2023-08-24T08:06:12;26.30;99.90
29939;DHT22;16799;50.844;5.304;2023-08-24T08:08:39;26.30;99.90
29939;DHT22;16799;50.844;5.304;2023-08-24T08:11:05;26.70;99.90
29939;DHT22;16799;50.844;5.304;2023-08-24T08:13:31;27.10;99.90
29939;DHT22;16799;50.844;5.304;2023-08-24T08:16:06;27.20;99.90
29939;DHT22;16799;50.844;5.304;2023-08-24T08:18:33;27.70;99.90
29939;DHT22;16799;50.844;5.304;2023-08-24T08:20:59;27.80;99.90
29939;DHT22;16799;50.844;5.304;2023-08-24T08:23:24;27.70;99.90
29939;DHT22;16799;50.844;5.304;2023-08-24T08:25:50;27.60;99.90
29939;DHT22;16799;50.844;5.304;2023-08-24T08:28:17;27.80;99.90
29939;DHT22;16799;50.844;5.304;2023-08-24T08:30:43;27.90;99.90
29939;DHT22;16799;50.844;5.304;2023-08-24T08:33:09;27.60;99.90
29939;DHT22;16799;50.844;5.304;2023-08-24T08:35:35;28.00;99.90
29939;DHT22;16799;50.844;5.304;2023-08-24T08:38:00;28.40;99.90
29939;DHT22;16799;50.844;5.304;2023-08-24T08:40:29;28.50;99.90
29939;DHT22;16799;50.844;5.304;2023-08-24T08:42:59;28.60;99.90
29939;DHT22;16799;50.844;5.304;2023-08-24T08:45:28;29.10;99.90
29939;DHT22;16799;50.844;5.304;2023-08-24T08:48:01;29.10;99.90
29939;DHT22;16799;50.844;5.304;2023-08-24T08:50:29;29.30;99.90
29939;DHT22;16799;50.844;5.304;2023-08-24T08:52:55;29.10;99.90
29939;DHT22;16799;50.844;5.304;2023-08-24T08:55:22;28.90;99.90
29939;DHT22;16799;50.844;5.304;2023-08-24T08:57:48;29.00;99.90
29939;DHT22;16799;50.844;5.304;2023-08-24T09:00:15;29.30;99.90
29939;DHT22;16799;50.844;5.304;2023-08-24T09:02:45;29.60;99.90
29939;DHT22;16799;50.844;5.304;2023-08-24T09:05:14;29.70;99.90
29939;DHT22;16799;50.844;5.304;2023-08-24T09:07:40;29.90;99.90
29939;DHT22;16799;50.844;5.304;2023-08-24T09:10:06;29.90;99.90
29939;DHT22;16799;50.844;5.304;2023-08-24T09:12:33;29.90;99.90
29939;DHT22;16799;50.844;5.304;2023-08-24T09:14:59;30.10;99.90
29939;DHT22;16799;50.844;5.304;2023-08-24T09:17:25;30.20;99.90
29939;DHT22;16799;50.844;5.304;2023-08-24T09:19:58;30.00;99.90
29939;DHT22;16799;50.844;5.304;2023-08-24T09:22:24;29.90;99.90
29939;DHT22;16799;50.844;5.304;2023-08-24T09:24:50;30.20;99.90
29939;DHT22;16799;50.844;5.304;2023-08-24T09:27:20;30.30;99.90
29939;DHT22;16799;50.844;5.304;2023-08-24T09:29:50;30.40;99.90
29939;DHT22;16799;50.844;5.304;2023-08-24T09:32:36;30.30;98.70
29939;DHT22;16799;50.844;5.304;2023-08-24T09:35:03;30.30;99.70
29939;DHT22;16799;50.844;5.304;2023-08-24T09:37:34;29.70;99.90
29939;DHT22;16799;50.844;5.304;2023-08-24T09:40:05;29.80;99.90
29939;DHT22;16799;50.844;5.304;2023-08-24T09:42:37;29.90;99.90
29939;DHT22;16799;50.844;5.304;2023-08-24T09:45:04;29.80;99.90
29939;DHT22;16799;50.844;5.304;2023-08-24T09:47:30;29.40;99.90
29939;DHT22;16799;50.844;5.304;2023-08-24T09:49:55;28.90;99.90
29939;DHT22;16799;50.844;5.304;2023-08-24T09:52:21;28.90;99.90
29939;DHT22;16799;50.844;5.304;2023-08-24T09:54:50;28.70;99.90
29939;DHT22;16799;50.844;5.304;2023-08-24T09:57:17;28.60;99.90
29939;DHT22;16799;50.844;5.304;2023-08-24T09:59:44;28.80;99.90
29939;DHT22;16799;50.844;5.304;2023-08-24T10:02:17;28.80;99.90
29939;DHT22;16799;50.844;5.304;2023-08-24T10:04:47;28.20;99.90
29939;DHT22;16799;50.844;5.304;2023-08-24T10:07:19;27.60;99.90
29939;DHT22;16799;50.844;5.304;2023-08-24T10:10:02;27.00;99.90
29939;DHT22;16799;50.844;5.304;2023-08-24T10:12:40;26.50;99.90
29939;DHT22;16799;50.844;5.304;2023-08-24T10:15:07;26.10;99.90
29939;DHT22;16799;50.844;5.304;2023-08-24T10:17:34;25.70;99.90
29939;DHT22;16799;50.844;5.304;2023-08-24T10:20:02;25.30;99.90
29939;DHT22;16799;50.844;5.304;2023-08-24T10:22:34;25.10;99.90
29939;DHT22;16799;50.844;5.304;2023-08-24T10:25:00;24.70;99.90
29939;DHT22;16799;50.844;5.304;2023-08-24T10:27:27;24.40;99.90
29939;DHT22;16799;50.844;5.304;2023-08-24T10:29:53;24.00;99.90
29939;DHT22;16799;50.844;5.304;2023-08-24T10:32:23;23.70;99.90
29939;DHT22;16799;50.844;5.304;2023-08-24T10:34:50;23.40;99.90
29939;DHT22;16799;50.844;5.304;2023-08-24T10:37:15;23.10;99.90
29939;DHT22;16799;50.844;5.304;2023-08-24T10:39:46;22.90;99.90
29939;DHT22;16799;50.844;5.304;2023-08-24T10:42:13;22.70;99.90
29939;DHT22;16799;50.844;5.304;2023-08-24T10:44:40;22.60;99.90
29939;DHT22;16799;50.844;5.304;2023-08-24T10:47:19;22.50;99.90
29939;DHT22;16799;50.844;5.304;2023-08-24T10:50:06;22.40;99.90
29939;DHT22;16799;50.844;5.304;2023-08-24T10:52:38;22.20;99.90
29939;DHT22;16799;50.844;5.304;2023-08-24T10:55:20;22.00;99.90
29939;DHT22;16799;50.844;5.304;2023-08-24T10:57:55;21.90;99.90
29939;DHT22;16799;50.844;5.304;2023-08-24T11:00:23;21.90;99.90
29939;DHT22;16799;50.844;5.304;2023-08-24T11:02:51;21.80;99.90
29939;DHT22;16799;50.844;5.304;2023-08-24T11:10:20;22.10;99.90
29939;DHT22;16799;50.844;5.304;2023-08-24T11:13:16;22.40;99.90
29939;DHT22;16799;50.844;5.304;2023-08-24T11:15:43;22.70;99.90
29939;DHT22;16799;50.844;5.304;2023-08-24T11:18:26;22.90;99.90
29939;DHT22;16799;50.844;5.304;2023-08-24T11:21:03;23.20;99.90
29939;DHT22;16799;50.844;5.304;2023-08-24T11:23:29;23.50;99.90
29939;DHT22;16799;50.844;5.304;2023-08-24T11:25:56;23.60;99.90
29939;DHT22;16799;50.844;5.304;2023-08-24T11:28:27;23.40;99.90
29939;DHT22;16799;50.844;5.304;2023-08-24T11:30:54;23.30;99.90
29939;DHT22;16799;50.844;5.304;2023-08-24T11:33:33;23.40;99.90
29939;DHT22;16799;50.844;5.304;2023-08-24T11:36:00;23.60;99.90
29939;DHT22;16799;50.844;5.304;2023-08-24T11:38:36;24.00;99.90
29939;DHT22;16799;50.844;5.304;2023-08-24T11:41:14;23.90;99.90
29939;DHT22;16799;50.844;5.304;2023-08-24T11:43:40;23.60;99.90
29939;DHT22;16799;50.844;5.304;2023-08-24T11:46:05;23.40;99.90
29939;DHT22;16799;50.844;5.304;2023-08-24T11:48:31;23.40;99.90
29939;DHT22;16799;50.844;5.304;2023-08-24T11:51:00;23.10;99.90
29939;DHT22;16799;50.844;5.304;2023-08-24T11:53:26;23.10;99.90
29939;DHT22;16799;50.844;5.304;2023-08-24T11:55:55;23.20;99.90
29939;DHT22;16799;50.844;5.304;2023-08-24T11:58:20;23.20;99.90
29939;DHT22;16799;50.844;5.304;2023-08-24T12:00:46;23.30;99.90
29939;DHT22;16799;50.844;5.304;2023-08-24T12:03:12;23.60;99.90
29939;DHT22;16799;50.844;5.304;2023-08-24T12:05:38;23.80;99.90
29939;DHT22;16799;50.844;5.304;2023-08-24T12:08:05;24.20;99.90
29939;DHT22;16799;50.844;5.304;2023-08-24T12:10:32;24.30;99.90
29939;DHT22;16799;50.844;5.304;2023-08-24T12:13:05;24.10;99.90
29939;DHT22;16799;50.844;5.304;2023-08-24T12:15:33;24.20;99.90
29939;DHT22;16799;50.844;5.304;2023-08-24T12:18:09;24.50;99.90
29939;DHT22;16799;50.844;5.304;2023-08-24T12:20:35;24.40;99.90
29939;DHT22;16799;50.844;5.304;2023-08-24T12:23:01;24.50;99.90
29939;DHT22;16799;50.844;5.304;2023-08-24T12:25:27;24.80;99.90
29939;DHT22;16799;50.844;5.304;2023-08-24T12:28:11;24.60;99.90
29939;DHT22;16799;50.844;5.304;2023-08-24T12:30:50;24.40;99.90
29939;DHT22;16799;50.844;5.304;2023-08-24T12:33:23;24.10;99.90
29939;DHT22;16799;50.844;5.304;2023-08-24T12:35:49;23.90;99.90
29939;DHT22;16799;50.844;5.304;2023-08-24T12:38:16;23.70;99.90
29939;DHT22;16799;50.844;5.304;2023-08-24T12:40:41;23.70;99.90
29939;DHT22;16799;50.844;5.304;2023-08-24T12:43:07;23.80;99.90
29939;DHT22;16799;50.844;5.304;2023-08-24T12:45:33;23.70;99.90
29939;DHT22;16799;50.844;5.304;2023-08-24T12:47:59;23.50;99.90
29939;DHT22;16799;50.844;5.304;2023-08-24T12:50:24;23.30;99.90
29939;DHT22;16799;50.844;5.304;2023-08-24T12:52:50;23.30;99.90
29939;DHT22;16799;50.844;5.304;2023-08-24T12:55:20;23.10;99.90
29939;DHT22;16799;50.844;5.304;2023-08-24T12:57:46;23.00;99.90
29939;DHT22;16799;50.844;5.304;2023-08-24T13:00:13;22.80;99.90
29939;DHT22;16799;50.844;5.304;2023-08-24T13:02:39;22.60;99.90
29939;DHT22;16799;50.844;5.304;2023-08-24T13:05:05;22.60;99.90
29939;DHT22;16799;50.844;5.304;2023-08-24T13:07:31;22.50;99.90
29939;DHT22;16799;50.844;5.304;2023-08-24T13:09:56;22.40;99.90
29939;DHT22;16799;50.844;5.304;2023-08-24T13:12:23;22.20;99.90
29939;DHT22;16799;50.844;5.304;2023-08-24T13:14:49;22.10;99.90
29939;DHT22;16799;50.844;5.304;2023-08-24T13:17:15;22.00;99.90
29939;DHT22;16799;50.844;5.304;2023-08-24T13:19:41;21.90;99.90
29939;DHT22;16799;50.844;5.304;2023-08-24T13:22:06;21.70;99.90
29939;DHT22;16799;50.844;5.304;2023-08-24T13:24:33;21.70;99.90
29939;DHT22;16799;50.844;5.304;2023-08-24T13:26:59;21.60;99.90
29939;DHT22;16799;50.844;5.304;2023-08-24T13:29:25;21.50;99.90
29939;DHT22;16799;50.844;5.304;2023-08-24T13:31:51;21.40;99.90
29939;DHT22;16799;50.844;5.304;2023-08-24T13:34:17;21.50;99.90
29939;DHT22;16799;50.844;5.304;2023-08-24T13:36:44;21.40;99.90
29939;DHT22;16799;50.844;5.304;2023-08-24T13:39:10;21.30;99.90
29939;DHT22;16799;50.844;5.304;2023-08-24T13:41:36;21.20;99.90
29939;DHT22;16799;50.844;5.304;2023-08-24T13:44:02;21.10;99.90
29939;DHT22;16799;50.844;5.304;2023-08-24T13:46:28;21.10;99.90
29939;DHT22;16799;50.844;5.304;2023-08-24T13:48:53;20.90;99.90
29939;DHT22;16799;50.844;5.304;2023-08-24T13:51:19;20.80;99.90
29939;DHT22;16799;50.844;5.304;2023-08-24T13:53:45;20.70;99.90
29939;DHT22;16799;50.844;5.304;2023-08-24T13:56:10;20.60;99.90
29939;DHT22;16799;50.844;5.304;2023-08-24T13:58:36;20.50;99.90
29939;DHT22;16799;50.844;5.304;2023-08-24T14:01:01;20.50;99.90
29939;DHT22;16799;50.844;5.304;2023-08-24T14:03:29;20.30;99.90
29939;DHT22;16799;50.844;5.304;2023-08-24T14:05:58;20.30;99.90
29939;DHT22;16799;50.844;5.304;2023-08-24T14:08:24;20.30;99.90
29939;DHT22;16799;50.844;5.304;2023-08-24T14:10:51;20.20;99.90
29939;DHT22;16799;50.844;5.304;2023-08-24T14:13:16;20.20;99.90
29939;DHT22;16799;50.844;5.304;2023-08-24T14:15:42;20.20;99.90
29939;DHT22;16799;50.844;5.304;2023-08-24T14:18:09;20.10;99.90
29939;DHT22;16799;50.844;5.304;2023-08-24T14:20:34;20.10;99.90
29939;DHT22;16799;50.844;5.304;2023-08-24T14:23:00;20.00;99.90
29939;DHT22;16799;50.844;5.304;2023-08-24T14:25:27;20.10;99.90
29939;DHT22;16799;50.844;5.304;2023-08-24T14:27:52;20.10;99.90
29939;DHT22;16799;50.844;5.304;2023-08-24T14:30:18;20.00;99.90
29939;DHT22;16799;50.844;5.304;2023-08-24T14:32:44;20.00;99.90
29939;DHT22;16799;50.844;5.304;2023-08-24T14:35:09;20.10;99.90
29939;DHT22;16799;50.844;5.304;2023-08-24T14:37:35;20.20;99.90
29939;DHT22;16799;50.844;5.304;2023-08-24T14:40:01;20.20;99.90
29939;DHT22;16799;50.844;5.304;2023-08-24T14:42:27;20.10;99.90
29939;DHT22;16799;50.844;5.304;2023-08-24T14:44:52;20.20;99.90
29939;DHT22;16799;50.844;5.304;2023-08-24T14:47:18;20.20;99.90
29939;DHT22;16799;50.844;5.304;2023-08-24T14:49:43;20.20;99.90
29939;DHT22;16799;50.844;5.304;2023-08-24T14:52:09;20.10;99.90
29939;DHT22;16799;50.844;5.304;2023-08-24T14:54:35;20.10;99.90
29939;DHT22;16799;50.844;5.304;2023-08-24T14:57:00;20.10;99.90
29939;DHT22;16799;50.844;5.304;2023-08-24T14:59:27;20.10;99.90
29939;DHT22;16799;50.844;5.304;2023-08-24T15:01:53;20.20;99.90
29939;DHT22;16799;50.844;5.304;2023-08-24T15:04:19;20.30;99.90
29939;DHT22;16799;50.844;5.304;2023-08-24T15:06:44;20.40;99.90
29939;DHT22;16799;50.844;5.304;2023-08-24T15:09:10;20.30;99.90
29939;DHT22;16799;50.844;5.304;2023-08-24T15:11:36;20.40;99.90
29939;DHT22;16799;50.844;5.304;2023-08-24T15:14:08;20.50;99.90
29939;DHT22;16799;50.844;5.304;2023-08-24T15:16:43;20.70;99.90
29939;DHT22;16799;50.844;5.304;2023-08-24T15:19:09;20.80;99.90
29939;DHT22;16799;50.844;5.304;2023-08-24T15:21:35;20.80;99.90
29939;DHT22;16799;50.844;5.304;2023-08-24T15:24:04;20.90;99.90
29939;DHT22;16799;50.844;5.304;2023-08-24T15:26:29;21.00;99.90
29939;DHT22;16799;50.844;5.304;2023-08-24T15:29:14;21.10;99.90
29939;DHT22;16799;50.844;5.304;2023-08-24T15:31:43;21.20;99.90
29939;DHT22;16799;50.844;5.304;2023-08-24T15:34:10;21.20;99.90
29939;DHT22;16799;50.844;5.304;2023-08-24T15:36:36;21.30;99.90
29939;DHT22;16799;50.844;5.304;2023-08-24T15:39:02;21.40;99.90
29939;DHT22;16799;50.844;5.304;2023-08-24T15:41:29;21.60;99.90
29939;DHT22;16799;50.844;5.304;2023-08-24T15:43:55;21.80;99.90